createdAt,value
2022-10-23T00:00:17.634Z,100
2022-10-23T00:01:24.578Z,100
2022-10-23T00:02:31.771Z,100
2022-10-23T00:03:38.858Z,100
2022-10-23T00:04:45.985Z,100
2022-10-23T00:05:52.542Z,100
2022-10-23T00:06:59.629Z,100
2022-10-23T00:08:06.792Z,100
2022-10-23T00:09:13.908Z,100
2022-10-23T00:10:21.027Z,100
2022-10-23T00:11:27.592Z,100
2022-10-23T00:12:36.765Z,100
2022-10-23T00:13:41.741Z,100
2022-10-23T00:15:55.969Z,100
2022-10-23T00:17:02.546Z,100
2022-10-23T00:18:09.689Z,100
2022-10-23T00:19:16.832Z,100
2022-10-23T00:20:24.411Z,100
2022-10-23T00:21:31.081Z,100
2022-10-23T00:23:44.680Z,100
2022-10-23T00:24:51.759Z,100
2022-10-23T00:25:58.858Z,100
2022-10-23T00:27:05.509Z,100
2022-10-23T00:28:12.541Z,100
2022-10-23T00:29:19.653Z,100
2022-10-23T00:30:26.788Z,100
2022-10-23T00:31:33.886Z,100
2022-10-23T00:32:40.468Z,100
2022-10-23T00:33:47.557Z,100
2022-10-23T00:34:54.758Z,100
2022-10-23T00:36:01.766Z,100
2022-10-23T00:37:08.958Z,100
2022-10-23T00:38:15.508Z,100
2022-10-23T00:39:22.550Z,100
2022-10-23T00:40:29.759Z,100
2022-10-23T00:41:36.848Z,100
2022-10-23T00:42:44.170Z,100
2022-10-23T00:43:50.493Z,100
2022-10-23T00:44:57.629Z,100
2022-10-23T00:46:04.702Z,100
2022-10-23T00:47:11.782Z,100
2022-10-23T00:48:18.411Z,100
2022-10-23T00:49:25.530Z,100
2022-10-23T00:50:32.550Z,100
2022-10-23T00:51:39.687Z,100
2022-10-23T00:52:46.783Z,100
2022-10-23T00:54:01.316Z,100
2022-10-23T00:55:00.454Z,100
2022-10-23T00:56:07.689Z,100
2022-10-23T00:57:14.693Z,100
2022-10-23T00:58:21.849Z,100
2022-10-23T00:59:28.911Z,100
2022-10-23T01:00:35.520Z,100
2022-10-23T01:01:42.680Z,100
2022-10-23T01:02:49.742Z,100
2022-10-23T01:05:03.913Z,100
2022-10-23T01:06:10.491Z,100
2022-10-23T01:07:17.597Z,100
2022-10-23T01:08:24.768Z,100
2022-10-23T01:09:31.825Z,100
2022-10-23T01:10:38.991Z,100
2022-10-23T01:11:45.528Z,100
2022-10-23T01:12:52.615Z,100
2022-10-23T01:13:59.797Z,100
2022-10-23T01:15:06.809Z,100
2022-10-23T01:17:20.501Z,100
2022-10-23T01:19:34.749Z,100
2022-10-23T01:20:41.788Z,100
2022-10-23T01:21:48.953Z,100
2022-10-23T01:22:55.507Z,100
2022-10-23T01:24:02.650Z,100
2022-10-23T01:25:09.770Z,100
2022-10-23T01:26:16.896Z,100
2022-10-23T01:27:23.975Z,100
2022-10-23T01:28:30.547Z,100
2022-10-23T01:29:37.665Z,100
2022-10-23T01:30:44.833Z,100
2022-10-23T01:31:51.836Z,100
2022-10-23T01:32:58.998Z,100
2022-10-23T01:34:05.560Z,100
2022-10-23T01:35:12.650Z,100
2022-10-23T01:36:19.750Z,100
2022-10-23T01:37:26.887Z,100
2022-10-23T01:38:33.427Z,100
2022-10-23T01:39:40.557Z,100
2022-10-23T01:40:47.730Z,100
2022-10-23T01:41:54.756Z,100
2022-10-23T01:43:01.857Z,100
2022-10-23T01:46:22.753Z,100
2022-10-23T01:47:29.765Z,100
2022-10-23T01:48:36.940Z,100
2022-10-23T01:49:43.434Z,100
2022-10-23T01:51:57.667Z,100
2022-10-23T01:53:04.801Z,100
2022-10-23T01:54:11.888Z,100
2022-10-23T01:55:18.456Z,100
2022-10-23T01:56:25.671Z,100
2022-10-23T01:57:32.668Z,100
2022-10-23T01:58:39.798Z,100
2022-10-23T01:59:46.899Z,100
2022-10-23T02:00:53.445Z,100
2022-10-23T02:02:00.717Z,101
2022-10-23T02:03:07.688Z,101
2022-10-23T02:04:14.796Z,100
2022-10-23T02:05:21.908Z,100
2022-10-23T02:06:28.508Z,100
2022-10-23T02:07:35.608Z,100
2022-10-23T02:08:42.717Z,100
2022-10-23T02:09:49.821Z,100
2022-10-23T02:10:57.007Z,100
2022-10-23T02:13:10.552Z,100
2022-10-23T02:14:17.693Z,100
2022-10-23T02:15:24.844Z,100
2022-10-23T02:16:31.908Z,100
2022-10-23T02:17:38.536Z,100
2022-10-23T02:18:45.584Z,100
2022-10-23T02:19:52.749Z,100
2022-10-23T02:20:59.839Z,100
2022-10-23T02:23:13.633Z,101
2022-10-23T02:24:20.621Z,101
2022-10-23T02:25:27.766Z,101
2022-10-23T02:27:41.974Z,101
2022-10-23T02:28:48.508Z,101
2022-10-23T02:29:55.644Z,101
2022-10-23T02:31:02.690Z,101
2022-10-23T02:32:09.865Z,101
2022-10-23T02:33:16.905Z,101
2022-10-23T02:34:23.529Z,101
2022-10-23T02:35:30.656Z,101
2022-10-23T02:36:37.724Z,101
2022-10-23T02:37:45.260Z,101
2022-10-23T02:38:51.957Z,101
2022-10-23T02:39:58.568Z,101
2022-10-23T02:41:05.724Z,101
2022-10-23T02:42:12.692Z,101
2022-10-23T02:43:19.875Z,101
2022-10-23T02:44:26.454Z,101
2022-10-23T02:45:33.555Z,101
2022-10-23T02:46:41.181Z,101
2022-10-23T02:47:47.728Z,101
2022-10-23T02:48:54.899Z,101
2022-10-23T02:50:01.400Z,101
2022-10-23T02:51:08.524Z,101
2022-10-23T02:52:15.690Z,101
2022-10-23T02:53:22.725Z,101
2022-10-23T02:54:29.902Z,101
2022-10-23T02:55:36.450Z,101
2022-10-23T02:56:43.593Z,101
2022-10-23T02:57:50.608Z,101
2022-10-23T02:58:57.748Z,101
2022-10-23T03:00:04.891Z,101
2022-10-23T03:01:11.667Z,101
2022-10-23T03:02:18.732Z,101
2022-10-23T03:03:25.657Z,101
2022-10-23T03:04:32.729Z,101
2022-10-23T03:05:39.911Z,101
2022-10-23T03:06:46.523Z,101
2022-10-23T03:09:00.675Z,101
2022-10-23T03:10:07.783Z,101
2022-10-23T03:11:14.903Z,101
2022-10-23T03:12:21.464Z,101
2022-10-23T03:13:28.628Z,101
2022-10-23T03:14:36.277Z,101
2022-10-23T03:15:42.737Z,101
2022-10-23T03:16:49.900Z,101
2022-10-23T03:17:56.482Z,101
2022-10-23T03:19:03.627Z,101
2022-10-23T03:20:10.660Z,101
2022-10-23T03:21:17.811Z,101
2022-10-23T03:22:24.922Z,101
2022-10-23T03:23:31.482Z,101
2022-10-23T03:24:38.618Z,101
2022-10-23T03:26:52.778Z,101
2022-10-23T03:27:59.927Z,101
2022-10-23T03:29:06.477Z,101
2022-10-23T03:30:13.603Z,101
2022-10-23T03:31:20.678Z,101
2022-10-23T03:32:27.829Z,101
2022-10-23T03:33:34.919Z,101
2022-10-23T03:34:41.488Z,101
2022-10-23T03:36:55.765Z,101
2022-10-23T03:38:02.842Z,101
2022-10-23T03:39:09.928Z,101
2022-10-23T03:40:16.516Z,101
2022-10-23T03:41:23.575Z,101
2022-10-23T03:43:37.967Z,101
2022-10-23T03:44:44.959Z,101
2022-10-23T03:45:51.490Z,101
2022-10-23T03:46:58.670Z,101
2022-10-23T03:48:05.746Z,101
2022-10-23T03:50:19.987Z,101
2022-10-23T03:51:26.619Z,101
2022-10-23T03:52:36.664Z,101
2022-10-23T03:53:40.731Z,101
2022-10-23T03:54:47.862Z,101
2022-10-23T03:55:54.947Z,101
2022-10-23T03:57:01.556Z,101
2022-10-23T03:58:08.650Z,101
2022-10-23T03:59:15.769Z,101
2022-10-23T04:00:22.844Z,101
2022-10-23T04:01:29.540Z,101
2022-10-23T04:02:36.838Z,101
2022-10-23T04:03:43.617Z,101
2022-10-23T04:04:50.739Z,101
2022-10-23T04:05:57.927Z,101
2022-10-23T04:07:04.450Z,101
2022-10-23T04:08:14.115Z,101
2022-10-23T04:09:18.606Z,101
2022-10-23T04:11:32.859Z,101
2022-10-23T04:12:39.709Z,101
2022-10-23T04:13:46.568Z,101
2022-10-23T04:14:53.628Z,101
2022-10-23T04:16:00.789Z,101
2022-10-23T04:17:07.862Z,101
2022-10-23T04:18:14.483Z,101
2022-10-23T04:19:21.577Z,101
2022-10-23T04:20:28.658Z,101
2022-10-23T04:21:35.762Z,101
2022-10-23T04:22:43.119Z,101
2022-10-23T04:23:49.488Z,101
2022-10-23T04:24:56.610Z,101
2022-10-23T04:26:03.666Z,101
2022-10-23T04:27:10.731Z,101
2022-10-23T04:28:17.867Z,101
2022-10-23T04:31:38.786Z,101
2022-10-23T04:32:45.808Z,101
2022-10-23T04:33:52.943Z,101
2022-10-23T04:34:59.457Z,101
2022-10-23T04:36:06.615Z,101
2022-10-23T04:37:13.670Z,101
2022-10-23T04:38:20.767Z,101
2022-10-23T04:39:27.963Z,101
2022-10-23T04:40:34.506Z,101
2022-10-23T04:41:41.629Z,101
2022-10-23T04:42:48.858Z,101
2022-10-23T04:43:55.838Z,101
2022-10-23T04:45:02.348Z,101
2022-10-23T04:46:09.499Z,101
2022-10-23T04:48:25.664Z,101
2022-10-23T04:49:30.789Z,101
2022-10-23T04:50:37.934Z,101
2022-10-23T04:51:44.510Z,101
2022-10-23T04:52:51.566Z,101
2022-10-23T04:53:58.742Z,101
2022-10-23T04:55:05.815Z,101
2022-10-23T04:56:12.980Z,101
2022-10-23T04:57:19.588Z,101
2022-10-23T04:58:26.620Z,101
2022-10-23T04:59:33.692Z,101
2022-10-23T05:00:40.814Z,101
2022-10-23T05:01:47.491Z,101
2022-10-23T05:02:54.501Z,101
2022-10-23T05:04:01.595Z,101
2022-10-23T05:05:08.722Z,101
2022-10-23T05:06:15.824Z,101
2022-10-23T05:08:29.528Z,101
2022-10-23T05:09:36.609Z,101
2022-10-23T05:10:43.727Z,101
2022-10-23T05:12:57.452Z,101
2022-10-23T05:14:04.538Z,101
2022-10-23T05:15:11.646Z,101
2022-10-23T05:16:18.766Z,101
2022-10-23T05:17:25.893Z,101
2022-10-23T05:18:32.388Z,101
2022-10-23T05:19:39.646Z,101
2022-10-23T05:20:46.636Z,101
2022-10-23T05:21:53.705Z,101
2022-10-23T05:23:00.810Z,101
2022-10-23T05:24:08.003Z,101
2022-10-23T05:25:14.572Z,101
2022-10-23T05:26:21.696Z,101
2022-10-23T05:27:28.866Z,101
2022-10-23T05:28:35.889Z,101
2022-10-23T05:29:42.449Z,101
2022-10-23T05:30:49.548Z,101
2022-10-23T05:31:56.691Z,101
2022-10-23T05:34:13.368Z,101
2022-10-23T05:35:17.482Z,101
2022-10-23T05:36:24.546Z,101
2022-10-23T05:37:31.629Z,101
2022-10-23T05:38:38.914Z,101
2022-10-23T05:39:45.871Z,101
2022-10-23T05:41:59.618Z,101
2022-10-23T05:43:06.698Z,101
2022-10-23T05:44:13.772Z,101
2022-10-23T05:45:20.910Z,101
2022-10-23T05:46:27.538Z,101
2022-10-23T05:47:34.620Z,101
2022-10-23T05:48:41.675Z,101
2022-10-23T05:49:48.808Z,101
2022-10-23T05:50:55.918Z,101
2022-10-23T05:52:02.435Z,101
2022-10-23T05:54:16.699Z,101
2022-10-23T05:55:23.796Z,101
2022-10-23T05:56:30.938Z,101
2022-10-23T05:57:37.551Z,101
2022-10-23T05:58:44.612Z,101
2022-10-23T05:59:51.692Z,101
2022-10-23T06:00:58.941Z,101
2022-10-23T06:02:06.183Z,101
2022-10-23T06:03:12.451Z,101
2022-10-23T06:04:19.581Z,101
2022-10-23T06:05:26.747Z,101
2022-10-23T06:06:33.840Z,101
2022-10-23T06:07:41.153Z,101
2022-10-23T06:09:54.656Z,101
2022-10-23T06:11:01.730Z,101
2022-10-23T06:12:08.858Z,101
2022-10-23T06:13:15.429Z,101
2022-10-23T06:14:22.470Z,101
2022-10-23T06:16:36.733Z,101
2022-10-23T06:17:44.177Z,101
2022-10-23T06:18:50.378Z,101
2022-10-23T06:19:57.510Z,101
2022-10-23T06:21:04.627Z,101
2022-10-23T06:22:11.807Z,101
2022-10-23T06:23:18.862Z,101
2022-10-23T06:24:25.451Z,101
2022-10-23T06:25:32.500Z,101
2022-10-23T06:26:39.629Z,101
2022-10-23T06:27:46.720Z,101
2022-10-23T06:28:53.791Z,101
2022-10-23T06:30:00.466Z,101
2022-10-23T06:31:07.527Z,101
2022-10-23T06:32:14.678Z,101
2022-10-23T06:33:21.740Z,101
2022-10-23T06:35:35.448Z,101
2022-10-23T06:37:49.697Z,101
2022-10-23T06:38:56.841Z,101
2022-10-23T06:40:03.864Z,101
2022-10-23T06:41:10.428Z,101
2022-10-23T06:42:17.545Z,101
2022-10-23T06:43:24.691Z,101
2022-10-23T06:44:31.770Z,101
2022-10-23T06:45:38.908Z,101
2022-10-23T06:46:45.467Z,101
2022-10-23T06:47:52.566Z,101
2022-10-23T06:48:59.696Z,101
2022-10-23T06:50:09.575Z,101
2022-10-23T06:51:13.871Z,101
2022-10-23T06:52:45.368Z,101
2022-10-23T06:53:27.589Z,101
2022-10-23T06:54:34.710Z,101
2022-10-23T06:55:41.741Z,101
2022-10-23T06:56:48.991Z,101
2022-10-23T06:57:55.490Z,101
2022-10-23T06:59:02.559Z,101
2022-10-23T07:00:09.698Z,101
2022-10-23T07:01:16.986Z,101
2022-10-23T07:02:23.850Z,101
2022-10-23T07:03:30.469Z,101
2022-10-23T07:04:37.609Z,101
2022-10-23T07:05:44.704Z,101
2022-10-23T07:06:51.928Z,101
2022-10-23T07:07:58.871Z,101
2022-10-23T07:09:05.495Z,101
2022-10-23T07:11:19.746Z,101
2022-10-23T07:12:26.842Z,101
2022-10-23T07:13:33.370Z,101
2022-10-23T07:14:40.439Z,101
2022-10-23T07:16:54.721Z,101
2022-10-23T07:18:01.756Z,101
2022-10-23T07:19:08.428Z,101
2022-10-23T07:20:15.483Z,101
2022-10-23T07:21:22.611Z,101
2022-10-23T07:22:29.723Z,101
2022-10-23T07:23:36.860Z,101
2022-10-23T07:24:43.362Z,101
2022-10-23T07:25:50.458Z,101
2022-10-23T07:26:57.630Z,101
2022-10-23T07:28:04.695Z,101
2022-10-23T07:29:11.819Z,101
2022-10-23T07:30:18.404Z,101
2022-10-23T07:31:27.992Z,101
2022-10-23T07:32:32.615Z,101
2022-10-23T07:33:39.758Z,101
2022-10-23T07:34:46.845Z,101
2022-10-23T07:35:53.437Z,101
2022-10-23T07:37:00.578Z,101
2022-10-23T07:38:07.698Z,101
2022-10-23T07:39:15.285Z,101
2022-10-23T07:41:28.402Z,101
2022-10-23T07:42:36.830Z,101
2022-10-23T07:43:42.730Z,101
2022-10-23T07:44:49.769Z,101
2022-10-23T07:45:56.903Z,101
2022-10-23T07:47:03.483Z,101
2022-10-23T07:48:10.488Z,101
2022-10-23T07:49:17.681Z,101
2022-10-23T07:50:24.763Z,101
2022-10-23T07:51:31.852Z,101
2022-10-23T07:52:38.475Z,101
2022-10-23T07:53:45.540Z,101
2022-10-23T07:54:52.639Z,101
2022-10-23T07:55:59.748Z,101
2022-10-23T07:58:13.433Z,101
2022-10-23T07:59:20.558Z,101
2022-10-23T08:00:27.675Z,101
2022-10-23T08:01:35.047Z,101
2022-10-23T08:02:42.162Z,101
2022-10-23T08:03:48.484Z,101
2022-10-23T08:04:55.593Z,101
2022-10-23T08:06:02.629Z,101
2022-10-23T08:07:09.769Z,101
2022-10-23T08:08:16.886Z,101
2022-10-23T08:09:23.438Z,101
2022-10-23T08:10:30.517Z,101
2022-10-23T08:11:37.689Z,101
2022-10-23T08:12:45.143Z,101
2022-10-23T08:13:51.896Z,101
2022-10-23T08:14:58.450Z,101
2022-10-23T08:16:05.629Z,101
2022-10-23T08:17:12.724Z,101
2022-10-23T08:18:19.829Z,101
2022-10-23T08:19:26.508Z,101
2022-10-23T08:20:34.046Z,101
2022-10-23T08:21:40.548Z,101
2022-10-23T08:22:47.700Z,101
2022-10-23T08:23:54.781Z,101
2022-10-23T08:25:01.329Z,101
2022-10-23T08:26:08.491Z,101
2022-10-23T08:27:15.648Z,101
2022-10-23T08:28:22.681Z,101
2022-10-23T08:29:29.762Z,101
2022-10-23T08:30:36.408Z,101
2022-10-23T08:31:43.606Z,101
2022-10-23T08:32:50.599Z,101
2022-10-23T08:33:57.725Z,101
2022-10-23T08:35:04.811Z,101
2022-10-23T08:36:11.354Z,101
2022-10-23T08:37:18.487Z,101
2022-10-23T08:39:32.719Z,101
2022-10-23T08:40:39.818Z,101
2022-10-23T08:41:46.421Z,101
2022-10-23T08:42:53.483Z,101
2022-10-23T08:45:07.714Z,101
2022-10-23T08:46:14.810Z,101
2022-10-23T08:47:21.440Z,101
2022-10-23T08:48:28.539Z,101
2022-10-23T08:49:35.648Z,101
2022-10-23T08:50:42.747Z,101
2022-10-23T08:51:49.846Z,101
2022-10-23T08:52:56.397Z,101
2022-10-23T08:54:03.504Z,101
2022-10-23T08:55:10.577Z,101
2022-10-23T08:56:17.379Z,101
2022-10-23T08:57:24.873Z,101
2022-10-23T08:58:31.385Z,101
2022-10-23T08:59:38.560Z,101
2022-10-23T09:00:45.674Z,101
2022-10-23T09:01:52.886Z,101
2022-10-23T09:02:59.864Z,101
2022-10-23T09:04:06.452Z,101
2022-10-23T09:05:13.540Z,101
2022-10-23T09:06:20.595Z,101
2022-10-23T09:07:27.751Z,101
2022-10-23T09:08:34.834Z,101
2022-10-23T09:09:41.382Z,101
2022-10-23T09:10:50.699Z,101
2022-10-23T09:11:55.689Z,101
2022-10-23T09:13:02.740Z,101
2022-10-23T09:14:09.841Z,101
2022-10-23T09:15:16.457Z,101
2022-10-23T09:16:23.599Z,101
2022-10-23T09:17:30.709Z,101
2022-10-23T09:18:37.723Z,101
2022-10-23T09:20:51.427Z,101
2022-10-23T09:21:58.534Z,101
2022-10-23T09:23:05.681Z,101
2022-10-23T09:24:12.728Z,101
2022-10-23T09:25:19.380Z,101
2022-10-23T09:26:26.455Z,101
2022-10-23T09:27:33.560Z,101
2022-10-23T09:28:40.619Z,101
2022-10-23T09:29:47.873Z,101
2022-10-23T09:30:54.377Z,101
2022-10-23T09:32:01.518Z,101
2022-10-23T09:33:08.586Z,101
2022-10-23T09:34:15.663Z,101
2022-10-23T09:35:22.747Z,101
2022-10-23T09:36:29.555Z,101
2022-10-23T09:37:36.509Z,101
2022-10-23T09:38:43.568Z,100
2022-10-23T09:39:50.668Z,100
2022-10-23T09:40:57.900Z,100
2022-10-23T09:42:04.418Z,100
2022-10-23T09:43:11.507Z,100
2022-10-23T09:44:18.544Z,100
2022-10-23T09:45:25.709Z,100
2022-10-23T09:46:32.800Z,100
2022-10-23T09:49:53.629Z,100
2022-10-23T09:51:00.649Z,100
2022-10-23T09:52:07.835Z,100
2022-10-23T09:53:14.389Z,100
2022-10-23T09:54:21.453Z,100
2022-10-23T09:55:28.555Z,100
2022-10-23T09:56:35.786Z,100
2022-10-23T09:57:43.322Z,100
2022-10-23T09:58:49.430Z,100
2022-10-23T09:59:56.546Z,100
2022-10-23T10:01:03.745Z,100
2022-10-23T10:02:10.888Z,100
2022-10-23T10:03:17.852Z,100
2022-10-23T10:04:24.408Z,100
2022-10-23T10:05:31.507Z,100
2022-10-23T10:06:38.659Z,100
2022-10-23T10:07:45.961Z,100
2022-10-23T10:08:52.832Z,100
2022-10-23T10:09:59.420Z,100
2022-10-23T10:11:06.549Z,100
2022-10-23T10:12:13.628Z,100
2022-10-23T10:13:20.757Z,100
2022-10-23T10:14:27.831Z,100
2022-10-23T10:15:34.441Z,100
2022-10-23T10:16:41.509Z,100
2022-10-23T10:17:48.779Z,100
2022-10-23T10:18:55.253Z,100
2022-10-23T10:20:05.434Z,100
2022-10-23T10:21:09.408Z,100
2022-10-23T10:22:16.569Z,100
2022-10-23T10:23:23.631Z,99
2022-10-23T10:24:30.776Z,99
2022-10-23T10:25:37.876Z,100
2022-10-23T10:26:44.466Z,99
2022-10-23T10:27:51.541Z,99
2022-10-23T10:28:58.769Z,99
2022-10-23T10:30:06.089Z,99
2022-10-23T10:31:12.873Z,99
2022-10-23T10:32:19.444Z,99
2022-10-23T10:33:26.541Z,99
2022-10-23T10:34:33.680Z,99
2022-10-23T10:35:40.765Z,99
2022-10-23T10:36:47.968Z,99
2022-10-23T10:37:54.723Z,99
2022-10-23T10:39:01.535Z,99
2022-10-23T10:40:08.653Z,99
2022-10-23T10:41:15.766Z,99
2022-10-23T10:42:22.323Z,99
2022-10-23T10:43:29.476Z,99
2022-10-23T10:44:36.550Z,99
2022-10-23T10:45:43.619Z,99
2022-10-23T10:46:50.796Z,99
2022-10-23T10:47:57.420Z,99
2022-10-23T10:49:04.466Z,99
2022-10-23T10:50:11.521Z,99
2022-10-23T10:52:25.820Z,99
2022-10-23T10:53:32.418Z,99
2022-10-23T10:54:39.458Z,99
2022-10-23T10:55:46.621Z,99
2022-10-23T10:56:53.681Z,99
2022-10-23T10:58:00.789Z,99
2022-10-23T10:59:07.423Z,99
2022-10-23T11:00:14.595Z,99
2022-10-23T11:01:21.787Z,99
2022-10-23T11:02:28.770Z,99
2022-10-23T11:03:39.039Z,99
2022-10-23T11:04:42.487Z,99
2022-10-23T11:05:49.658Z,99
2022-10-23T11:08:03.662Z,99
2022-10-23T11:09:20.336Z,99
2022-10-23T11:10:17.432Z,99
2022-10-23T11:11:24.509Z,99
2022-10-23T11:12:31.621Z,99
2022-10-23T11:13:38.703Z,99
2022-10-23T11:14:45.849Z,99
2022-10-23T11:18:06.690Z,99
2022-10-23T11:19:14.261Z,99
2022-10-23T11:20:20.831Z,99
2022-10-23T11:21:27.401Z,99
2022-10-23T11:22:36.930Z,99
2022-10-23T11:23:41.565Z,99
2022-10-23T11:24:50.081Z,99
2022-10-23T11:25:55.869Z,98
2022-10-23T11:27:02.561Z,98
2022-10-23T11:28:10.673Z,98
2022-10-23T11:29:16.662Z,98
2022-10-23T11:30:23.678Z,98
2022-10-23T11:31:30.850Z,98
2022-10-23T11:32:37.513Z,98
2022-10-23T11:33:44.822Z,98
2022-10-23T11:35:58.721Z,98
2022-10-23T11:37:05.305Z,98
2022-10-23T11:38:12.433Z,97
2022-10-23T11:39:19.527Z,97
2022-10-23T11:40:26.613Z,97
2022-10-23T11:41:33.227Z,98
2022-10-23T11:42:40.876Z,98
2022-10-23T11:43:47.477Z,98
2022-10-23T11:44:54.643Z,98
2022-10-23T11:46:01.659Z,98
2022-10-23T11:47:08.895Z,98
2022-10-23T11:48:15.404Z,98
2022-10-23T11:49:22.504Z,98
2022-10-23T11:50:29.543Z,98
2022-10-23T11:51:36.749Z,96
2022-10-23T11:52:50.625Z,97
2022-10-23T11:53:50.375Z,97
2022-10-23T11:56:04.588Z,97
2022-10-23T11:57:11.662Z,96
2022-10-23T11:58:18.825Z,97
2022-10-23T11:59:25.434Z,96
2022-10-23T12:00:32.407Z,96
2022-10-23T12:01:39.677Z,96
2022-10-23T12:03:53.787Z,96
2022-10-23T12:05:00.325Z,96
2022-10-23T12:06:07.521Z,95
2022-10-23T12:07:14.660Z,96
2022-10-23T12:08:21.719Z,96
2022-10-23T12:09:29.139Z,96
2022-10-23T12:10:35.407Z,96
2022-10-23T12:12:49.688Z,97
2022-10-23T12:13:56.740Z,97
2022-10-23T12:15:03.820Z,96
2022-10-23T12:16:10.406Z,96
2022-10-23T12:17:17.479Z,96
2022-10-23T12:18:24.593Z,96
2022-10-23T12:19:31.765Z,96
2022-10-23T12:20:38.318Z,95
2022-10-23T12:21:45.440Z,95
2022-10-23T12:23:59.641Z,93
2022-10-23T12:25:06.683Z,93
2022-10-23T12:26:13.238Z,93
2022-10-23T12:27:21.460Z,93
2022-10-23T12:28:27.529Z,93
2022-10-23T12:29:34.627Z,93
2022-10-23T12:31:48.392Z,93
2022-10-23T12:32:55.413Z,93
2022-10-23T12:34:02.503Z,93
2022-10-23T12:35:09.670Z,93
2022-10-23T12:36:16.789Z,93
2022-10-23T12:37:23.360Z,93
2022-10-23T12:38:33.943Z,93
2022-10-23T12:39:37.530Z,93
2022-10-23T12:40:44.671Z,93
2022-10-23T12:41:51.724Z,93
2022-10-23T12:42:58.394Z,93
2022-10-23T12:44:05.422Z,93
2022-10-23T12:46:19.719Z,93
2022-10-23T12:47:26.764Z,93
2022-10-23T12:48:33.287Z,92
2022-10-23T12:49:40.393Z,92
2022-10-23T12:50:47.532Z,92
2022-10-23T12:51:54.680Z,92
2022-10-23T12:53:01.818Z,92
2022-10-23T12:54:08.330Z,92
2022-10-23T12:55:15.431Z,92
2022-10-23T12:56:22.550Z,92
2022-10-23T12:57:29.644Z,92
2022-10-23T12:59:43.296Z,91
2022-10-23T13:00:50.501Z,91
2022-10-23T13:01:57.650Z,91
2022-10-23T13:03:04.693Z,91
2022-10-23T13:05:18.408Z,91
2022-10-23T13:06:25.425Z,91
2022-10-23T13:07:32.614Z,91
2022-10-23T13:08:39.666Z,91
2022-10-23T13:09:46.805Z,90
2022-10-23T13:10:53.341Z,90
2022-10-23T13:12:00.425Z,90
2022-10-23T13:13:07.577Z,90
2022-10-23T13:14:14.754Z,90
2022-10-23T13:15:21.735Z,90
2022-10-23T13:16:28.377Z,90
2022-10-23T13:17:35.527Z,90
2022-10-23T13:18:42.575Z,90
2022-10-23T13:19:49.741Z,90
2022-10-23T13:20:56.850Z,90
2022-10-23T13:22:03.416Z,90
2022-10-23T13:23:10.450Z,90
2022-10-23T13:24:17.610Z,90
2022-10-23T13:25:24.712Z,90
2022-10-23T13:26:31.825Z,90
2022-10-23T13:27:38.460Z,90
2022-10-23T13:28:45.523Z,90
2022-10-23T13:29:52.635Z,90
2022-10-23T13:30:59.756Z,90
2022-10-23T13:32:06.352Z,90
2022-10-23T13:33:13.379Z,90
2022-10-23T13:34:20.544Z,90
2022-10-23T13:35:27.636Z,90
2022-10-23T13:36:34.684Z,90
2022-10-23T13:37:41.347Z,90
2022-10-23T13:38:48.523Z,90
2022-10-23T13:39:55.483Z,89
2022-10-23T13:41:02.553Z,89
2022-10-23T13:42:09.700Z,89
2022-10-23T13:43:16.429Z,90
2022-10-23T13:44:23.401Z,89
2022-10-23T13:46:37.689Z,89
2022-10-23T13:47:45.434Z,89
2022-10-23T13:48:51.331Z,89
2022-10-23T13:49:58.456Z,89
2022-10-23T13:51:05.579Z,89
2022-10-23T13:52:12.846Z,89
2022-10-23T13:53:19.848Z,89
2022-10-23T13:55:33.460Z,89
2022-10-23T13:56:40.576Z,89
2022-10-23T13:57:47.616Z,89
2022-10-23T13:58:54.769Z,89
2022-10-23T14:00:01.382Z,89
2022-10-23T14:01:08.077Z,89
2022-10-23T14:03:22.701Z,89
2022-10-23T14:04:29.866Z,89
2022-10-23T14:05:36.305Z,89
2022-10-23T14:06:43.430Z,89
2022-10-23T14:07:50.570Z,89
2022-10-23T14:08:57.696Z,89
2022-10-23T14:10:04.931Z,89
2022-10-23T14:11:11.471Z,89
2022-10-23T14:12:18.527Z,89
2022-10-23T14:14:32.693Z,89
2022-10-23T14:15:39.849Z,89
2022-10-23T14:16:46.404Z,89
2022-10-23T14:17:58.088Z,89
2022-10-23T14:19:00.625Z,89
2022-10-23T14:20:07.880Z,89
2022-10-23T14:21:14.740Z,89
2022-10-23T14:22:21.399Z,89
2022-10-23T14:23:28.561Z,89
2022-10-23T14:24:35.646Z,89
2022-10-23T14:25:42.699Z,89
2022-10-23T14:27:56.566Z,89
2022-10-23T14:30:10.506Z,89
2022-10-23T14:31:17.628Z,89
2022-10-23T14:32:24.399Z,89
2022-10-23T14:33:31.432Z,89
2022-10-23T14:34:38.565Z,89
2022-10-23T14:35:45.696Z,89
2022-10-23T14:37:07.323Z,89
2022-10-23T14:37:59.289Z,89
2022-10-23T14:39:06.471Z,89
2022-10-23T14:40:13.428Z,89
2022-10-23T14:41:20.752Z,89
2022-10-23T14:42:33.058Z,89
2022-10-23T14:43:34.247Z,89
2022-10-23T14:44:41.328Z,89
2022-10-23T14:45:48.453Z,88
2022-10-23T14:46:55.572Z,88
2022-10-23T14:48:02.656Z,88
2022-10-23T14:49:09.363Z,88
2022-10-23T14:50:16.497Z,88
2022-10-23T14:51:23.465Z,88
2022-10-23T14:52:30.654Z,88
2022-10-23T14:53:37.736Z,88
2022-10-23T14:54:44.399Z,89
2022-10-23T14:55:51.339Z,89
2022-10-23T14:58:05.587Z,89
2022-10-23T14:59:12.651Z,89
2022-10-23T15:00:19.382Z,89
2022-10-23T15:01:26.753Z,89
2022-10-23T15:02:33.552Z,89
2022-10-23T15:03:40.554Z,89
2022-10-23T15:04:47.732Z,89
2022-10-23T15:07:01.375Z,89
2022-10-23T15:09:15.644Z,89
2022-10-23T15:10:22.758Z,89
2022-10-23T15:11:29.275Z,89
2022-10-23T15:12:37.002Z,89
2022-10-23T15:13:43.469Z,89
2022-10-23T15:14:50.623Z,89
2022-10-23T15:15:57.793Z,89
2022-10-23T15:17:04.307Z,89
2022-10-23T15:18:11.477Z,89
2022-10-23T15:19:19.089Z,89
2022-10-23T15:20:25.810Z,90
2022-10-23T15:21:32.265Z,89
2022-10-23T15:22:39.578Z,89
2022-10-23T15:23:46.485Z,89
2022-10-23T15:26:00.601Z,89
2022-10-23T15:27:07.336Z,89
2022-10-23T15:28:14.476Z,89
2022-10-23T15:29:21.391Z,89
2022-10-23T15:30:28.501Z,89
2022-10-23T15:31:35.740Z,89
2022-10-23T15:32:42.271Z,89
2022-10-23T15:33:49.306Z,89
2022-10-23T15:34:56.444Z,89
2022-10-23T15:36:03.574Z,89
2022-10-23T15:37:10.685Z,89
2022-10-23T15:38:17.264Z,89
2022-10-23T15:39:24.447Z,89
2022-10-23T15:40:31.513Z,89
2022-10-23T15:42:45.967Z,89
2022-10-23T15:43:52.203Z,89
2022-10-23T15:44:59.883Z,89
2022-10-23T15:46:06.436Z,89
2022-10-23T15:47:13.708Z,89
2022-10-23T15:48:20.799Z,89
2022-10-23T15:50:34.505Z,89
2022-10-23T15:51:41.637Z,89
2022-10-23T15:53:55.791Z,89
2022-10-23T15:55:02.324Z,89
2022-10-23T15:56:09.408Z,89
2022-10-23T15:57:16.568Z,89
2022-10-23T15:58:23.677Z,89
2022-10-23T15:59:30.758Z,89
2022-10-23T16:00:37.377Z,89
2022-10-23T16:01:44.640Z,89
2022-10-23T16:02:51.511Z,89
2022-10-23T16:03:58.664Z,89
2022-10-23T16:05:05.683Z,89
2022-10-23T16:06:12.295Z,89
2022-10-23T16:07:19.381Z,89
2022-10-23T16:08:26.515Z,89
2022-10-23T16:10:40.784Z,89
2022-10-23T16:11:47.383Z,89
2022-10-23T16:12:54.403Z,89
2022-10-23T16:14:01.459Z,89
2022-10-23T16:15:08.574Z,89
2022-10-23T16:16:15.784Z,89
2022-10-23T16:17:22.400Z,89
2022-10-23T16:18:29.495Z,89
2022-10-23T16:19:36.672Z,89
2022-10-23T16:20:43.557Z,89
2022-10-23T16:21:50.657Z,89
2022-10-23T16:22:57.278Z,89
2022-10-23T16:24:04.563Z,89
2022-10-23T16:25:11.475Z,89
2022-10-23T16:26:18.674Z,90
2022-10-23T16:27:26.206Z,90
2022-10-23T16:28:32.399Z,90
2022-10-23T16:29:39.458Z,90
2022-10-23T16:31:53.720Z,90
2022-10-23T16:33:00.839Z,90
2022-10-23T16:34:07.310Z,90
2022-10-23T16:35:14.408Z,90
2022-10-23T16:36:21.556Z,90
2022-10-23T16:37:28.715Z,90
2022-10-23T16:38:35.919Z,90
2022-10-23T16:39:42.379Z,90
2022-10-23T16:40:49.509Z,90
2022-10-23T16:41:57.624Z,90
2022-10-23T16:43:03.588Z,90
2022-10-23T16:44:10.360Z,90
2022-10-23T16:45:17.317Z,90
2022-10-23T16:46:24.518Z,90
2022-10-23T16:47:31.631Z,90